• Join FlightAware (Why Join?)
  • Login
  • US Flag 
03:09AM EST


 

Airport Tracker/Info


-or-


 

Live Flight TrackerFlight Track Log ✈ N789EX ✈ 29-Mar-2014 ✈ KBFI - KBFI

Flight Track Log - Related Links

Times and Time Zones

All times are in EDT time to prevent confusion due to time zone crossing. See the N789EX flight status page for this flight to view local times or setup timezone preferences in your user account.

Time Position Orientation Groundspeed Altitude Reporting Facility
EDT Latitude Longitude Course Direction KTS MPH feet Rate Location/Type
04:43PM 47.4984 -122.2720 143° Southeast 213 245 2,000  Level FlightAware ADS-B
04:44PM 47.4886 -122.2610 141° Southeast 223 257 2,700 3,540 Climbing FlightAware ADS-B
04:44PM 47.4767 -122.2460 139° Southeast 232 267 3,600 3,600 Climbing FlightAware ADS-B
04:44PM 47.4652 -122.2310 140° Southeast 244 281 4,400 3,480 Climbing FlightAware ADS-B
04:44PM 47.4623 -122.2280 143° Southeast 245 282 4,600 2,520 Climbing FlightAware ADS-B
04:44PM 47.4593 -122.2250 146° Southeast 246 283 4,700 2,520 Climbing FlightAware ADS-B
04:44PM 47.4555 -122.2220 153° Southeast 246 283 4,900 3,000 Climbing FlightAware ADS-B
04:44PM 47.4513 -122.2200 161° South 245 282 5,100 3,720 Climbing FlightAware ADS-B
04:44PM 47.4465 -122.2180 169° South 243 280 5,400 4,260 Climbing FlightAware ADS-B
04:44PM 47.4427 -122.2170 176° South 240 276 5,600 3,960 Climbing FlightAware ADS-B
04:44PM 47.4394 -122.2170 183° South 239 275 5,800 3,960 Climbing FlightAware ADS-B
04:45PM 47.4359 -122.2180 189° South 238 274 6,000 3,420 Climbing FlightAware ADS-B
04:45PM 47.4323 -122.2190 195° South 235 270 6,200 4,500 Climbing FlightAware ADS-B
04:45PM 47.4283 -122.2220 204° Southwest 231 266 6,600 5,220 Climbing FlightAware ADS-B
04:45PM 47.4249 -122.2250 212° Southwest 226 260 6,900 4,260 Climbing FlightAware ADS-B
04:45PM 47.4224 -122.2280 218° Southwest 224 258 7,100 4,980 Climbing FlightAware ADS-B
04:45PM 47.4199 -122.2310 224° Southwest 222 255 7,400 4,500 Climbing FlightAware ADS-B
04:45PM 47.4171 -122.2360 234° Southwest 221 254 7,700 3,960 Climbing FlightAware ADS-B
04:45PM 47.4148 -122.2420 242° Southwest 221 254 8,000 3,720 Climbing FlightAware ADS-B
04:45PM 47.4135 -122.2470 251° West 223 257 8,200 3,720 Climbing FlightAware ADS-B
04:45PM 47.4126 -122.2530 259° West 224 258 8,500 3,720 Climbing FlightAware ADS-B
04:45PM 47.4120 -122.2600 264° West 226 260 8,700 3,600 Climbing FlightAware ADS-B
04:45PM 47.4117 -122.2780 270° West 231 266 9,400 3,600 Climbing FlightAware ADS-B
04:46PM 47.4118 -122.2990 269° West 234 269 10,200 3,600 Climbing FlightAware ADS-B
04:46PM 47.4108 -122.3203 265° West 237 273 11,100 3,480 Climbing FlightAware ADS-B (CYVR)
04:46PM 47.4104 -122.3260 265° West 237 273 11,200 3,240 Climbing FlightAware ADS-B
04:46PM 47.4072 -122.3750 264° West 245 282 12,900 3,420 Climbing FlightAware ADS-B
04:46PM 47.4065 -122.3843 264° West 246 283 13,200 3,600 Climbing FlightAware ADS-B (CYVR)
04:47PM 47.4044 -122.4100 262° West 249 287 14,100 2,880 Climbing FlightAware ADS-B
04:47PM 47.4011 -122.4340 256° West 262 302 14,600 1,380 Climbing FlightAware ADS-B
04:47PM 47.3926 -122.4747 251° West 294 338 15,000 1,080 Climbing FlightAware ADS-B (CYWH)
04:47PM 47.3883 -122.4930 251° West 302 348 15,200 1,380 Climbing FlightAware ADS-B
04:48PM 47.3731 -122.5539 249° West 341 392 15,900 1,320 Climbing FlightAware ADS-B (CYVR)
04:48PM 47.3726 -122.5560 249° West 342 394 15,900 2,400 Level FlightAware ADS-B
04:48PM 47.3567 -122.6174 249° West 360 414 17,100 2,580 Climbing FlightAware ADS-B (CYVR)
04:48PM 47.3550 -122.6240 249° West 360 414 17,200 3,240 Climbing FlightAware ADS-B
04:49PM 47.3370 -122.6930 249° West 365 420 18,800 2,940 Climbing FlightAware ADS-B
04:50PM 47.3192 -122.7612 249° West 374 430 20,200 2,520 Climbing FlightAware ADS-B (CYWH)
04:50PM 47.3157 -122.7750 249° West 374 430 20,300 2,580 Climbing FlightAware ADS-B
04:50PM 47.3002 -122.8333 249° West 383 441 21,500 2,760 Climbing FlightAware ADS-B (CYWH)
04:50PM 47.2964 -122.8480 249° West 383 441 21,700 2,820 Climbing FlightAware ADS-B
04:51PM 47.2772 -122.9210 249° West 387 445 23,100 2,640 Climbing FlightAware ADS-B
04:51PM 47.2744 -122.9320 249° West 388 447 23,300 2,460 Climbing FlightAware ADS-B (CYWH)
04:51PM 47.2575 -122.9960 249° West 392 451 24,400 2,700 Climbing FlightAware ADS-B
04:51PM 47.2508 -123.0217 249° West 395 455 24,900 2,160 Climbing FlightAware ADS-B (CYWH)
04:52PM 47.2374 -123.0720 249° West 399 459 25,500 1,740 Climbing FlightAware ADS-B
04:52PM 47.2213 -123.1330 249° West 407 468 26,200 1,800 Climbing FlightAware ADS-B (CYVR)
04:52PM 47.2169 -123.1500 249° West 409 471 26,400 1,980 Climbing FlightAware ADS-B
04:53PM 47.1963 -123.2290 249° West 416 479 27,400 1,980 Climbing FlightAware ADS-B
04:53PM 47.1953 -123.2323 249° West 416 479 27,500 1,740 Climbing FlightAware ADS-B (CYVR)
04:53PM 47.1751 -123.3090 249° West 423 487 28,300 1,740 Climbing FlightAware ADS-B
04:53PM 47.1748 -123.3098 249° West 424 488 28,400 1,740 Climbing FlightAware ADS-B (CYVR)
04:54PM 47.1578 -123.3750 251° West 429 494 29,000 1,740 Climbing FlightAware ADS-B
04:54PM 47.1546 -123.3930 256° West 431 496 29,200 1,800 Climbing FlightAware ADS-B
04:54PM 47.1539 -123.3977 261° West 434 499 29,300 1,980 Climbing FlightAware ADS-B (CYWH)
04:54PM 47.1528 -123.4080 262° West 435 501 29,400 1,500 Climbing FlightAware ADS-B
04:54PM 47.1521 -123.4250 268° West 439 505 29,500 1,200 Climbing FlightAware ADS-B
04:54PM 47.1523 -123.4380 272° West 442 509 29,600 1,200 Climbing FlightAware ADS-B
04:54PM 47.1537 -123.4560 278° West 447 514 29,700 840 Climbing FlightAware ADS-B
04:54PM 47.1537 -123.4565 280° West 448 516 29,700 1,080 Level FlightAware ADS-B (CYVR)
04:54PM 47.1554 -123.4684 291° West 458 527 29,900 1,260 Climbing FlightAware ADS-B (CYVR)
04:54PM 47.1630 -123.5000 293° West 459 528 30,000 840 Climbing FlightAware ADS-B
04:54PM 47.1554 -123.4684 297° West 462 532 30,000  Level FlightAware ADS-B (CYWH)
04:55PM 47.1948 -123.5830 300° West 460 529 30,000  Level FlightAware ADS-B
04:55PM 47.1997 -123.5950 301° West 460 529 30,000  Level FlightAware ADS-B (CYVR)
04:55PM 47.2274 -123.6640 300° West 458 527 30,000  Level FlightAware ADS-B
04:55PM 47.2321 -123.6760 300° West 458 527 30,000 780 Level FlightAware ADS-B (CYVR)
04:56PM 47.2598 -123.7450 300° West 459 528 30,400 1,200 Climbing FlightAware ADS-B
04:56PM 47.2741 -123.7816 300° West 461 531 30,800 1,800 Climbing FlightAware ADS-B (CYVR)
04:56PM 47.2921 -123.8280 300° West 462 532 31,300 1,800 Climbing FlightAware ADS-B
04:57PM 47.3085 -123.8697 300° West 463 533 31,700 1,500 Climbing FlightAware ADS-B (CYVR)
04:57PM 47.3247 -123.9110 300° West 465 535 32,100 1,560 Climbing FlightAware ADS-B
04:57PM 47.3490 -123.9738 300° West 466 536 32,700 1,440 Climbing FlightAware ADS-B (CYVR)
04:57PM 47.3562 -123.9930 299° West 467 537 32,800 1,320 Climbing FlightAware ADS-B
04:57PM 47.3670 -124.0250 294° West 465 535 33,100 840 Climbing FlightAware ADS-B
04:58PM 47.3771 -124.0690 286° West 457 526 33,200 240 Climbing FlightAware ADS-B
04:58PM 47.3811 -124.0980 279° West 451 519 33,200  Level FlightAware ADS-B
04:58PM 47.3825 -124.1160 276° West 449 517 33,200  Level FlightAware ADS-B (CYVR)
04:58PM 47.3830 -124.1300 272° West 445 512 33,200  Level FlightAware ADS-B
04:58PM 47.3828 -124.1510 268° West 442 509 33,200  Level FlightAware ADS-B
04:58PM 47.3804 -124.1844 262° West 440 506 33,200  Level FlightAware ADS-B (CYWH)
04:59PM 47.3740 -124.2410 260° West 445 512 33,200  Level FlightAware ADS-B
04:59PM 47.3689 -124.2837 260° West 448 516 33,200  Level FlightAware ADS-B
04:59PM 47.3632 -124.3320 260° West 448 516 33,200  Level FlightAware ADS-B
04:59PM 47.3563 -124.3915 260° West 450 518 33,200  Level FlightAware ADS-B (CYVR)
05:00PM 47.3526 -124.4240 261° West 450 518 33,200  Level FlightAware ADS-B
05:00PM 47.3493 -124.4710 267° West 453 521 33,200  Level FlightAware ADS-B
05:00PM 47.3494 -124.4866 272° West 455 524 33,200  Level FlightAware ADS-B (CYVR)
05:00PM 47.3499 -124.4970 274° West 456 525 33,200  Level FlightAware ADS-B
05:00PM 47.3512 -124.5090 280° West 459 528 33,200  Level FlightAware ADS-B
05:00PM 47.3524 -124.5174 285° West 461 531 33,200  Level FlightAware ADS-B (CYWH)
05:00PM 47.3532 -124.5220 285° West 461 531 33,200  Level FlightAware ADS-B
05:00PM 47.3589 -124.5440 293° West 466 536 33,200  Level FlightAware ADS-B
05:00PM 47.3696 -124.5700 305° West 473 544 33,200 -660 Level FlightAware ADS-B
05:01PM 47.3828 -124.5910 315° West 474 545 33,000 -1,680 Descending FlightAware ADS-B
05:01PM 47.3841 -124.5929 319° Northwest 476 548 32,900 -3,360 Descending FlightAware ADS-B (CYVR)
05:01PM 47.3987 -124.6090 326° Northwest 480 552 32,500 -3,600 Descending FlightAware ADS-B
05:01PM 47.3968 -124.6071 330° Northwest 483 556 32,300 -3,540 Descending FlightAware ADS-B (CYVR)
05:01PM 47.4226 -124.6260 338° Northwest 490 564 31,800 -2,700 Descending FlightAware ADS-B
05:01PM 47.4476 -124.6379 342° North 494 568 31,400 -1,200 Descending FlightAware ADS-B (CYVR)
05:01PM 47.4892 -124.6570 342° North 499 574 31,200 -360 Descending FlightAware ADS-B
05:02PM 47.5230 -124.6733 342° North 498 573 31,200  Level FlightAware ADS-B (CYVR)
05:02PM 47.5559 -124.6890 342° North 497 572 31,200  Level FlightAware ADS-B
05:02PM 47.5965 -124.7081 342° North 498 573 31,200  Level FlightAware ADS-B (CYVR)
05:02PM 47.6214 -124.7200 342° North 498 573 31,200  Level FlightAware ADS-B
05:03PM 47.6697 -124.7428 342° North 499 574 31,200  Level FlightAware ADS-B (CYWH)
05:03PM 47.6886 -124.7520 342° North 499 574 31,200  Level FlightAware ADS-B
05:03PM 47.7545 -124.7830 342° North 500 575 31,200  Level FlightAware ADS-B
05:04PM 47.7536 -124.7828 342° North 500 575 31,200  Level FlightAware ADS-B (CYVR)
05:04PM 47.8212 -124.8160 342° North 498 573 31,200  Level FlightAware ADS-B
05:05PM 47.8870 -124.8480 342° North 497 572 31,200  Level FlightAware ADS-B
05:05PM 47.9049 -124.8567 342° North 496 571 31,200  Level FlightAware ADS-B (CYVR)
05:05PM 47.9542 -124.8810 342° North 498 573 31,200  Level FlightAware ADS-B
05:05PM 47.9743 -124.8909 342° North 498 573 31,200  Level FlightAware ADS-B (CYVR)
05:05PM 47.9957 -124.9030 338° Northwest 497 572 31,200  Level FlightAware ADS-B
05:06PM 48.0175 -124.9210 327° Northwest 490 564 31,200  Level FlightAware ADS-B
05:06PM 48.0324 -124.9403 315° West 482 555 31,200  Level FlightAware ADS-B (CYVR)
05:06PM 48.0342 -124.9430 315° West 482 555 31,200  Level FlightAware ADS-B
05:06PM 48.0410 -124.9550 309° West 477 549 31,200  Level FlightAware ADS-B
05:06PM 48.0472 -124.9697 301° West 474 545 31,200  Level FlightAware ADS-B (CYVR)
05:06PM 48.0549 -124.9957 288° West 467 537 31,200  Level FlightAware ADS-B (CYVR)
05:06PM 48.0570 -125.0060 288° West 467 537 31,200  Level FlightAware ADS-B
05:06PM 48.0594 -125.0500 270° West 460 529 31,200  Level FlightAware ADS-B
05:06PM 48.0585 -125.0617 262° West 459 528 31,200  Level FlightAware ADS-B (CYWH)
05:06PM 48.0559 -125.0780 255° West 457 526 31,200  Level FlightAware ADS-B
05:07PM 48.0508 -125.0980 247° West 456 525 31,200  Level FlightAware ADS-B
05:07PM 48.0448 -125.1141 235° Southwest 455 524 31,200  Level FlightAware ADS-B (CYVR)
05:07PM 48.0421 -125.1200 236° Southwest 455 524 31,200  Level FlightAware ADS-B
05:07PM 48.0357 -125.1310 230° Southwest 456 525 31,200  Level FlightAware ADS-B
05:07PM 48.0294 -125.1406 222° Southwest 456 525 31,200  Level FlightAware ADS-B (CYVR)
05:07PM 48.0218 -125.1500 218° Southwest 457 526 31,200  Level FlightAware ADS-B
05:07PM 48.0132 -125.1580 211° Southwest 458 527 31,200  Level FlightAware ADS-B
05:07PM 48.0113 -125.1591 208° Southwest 460 529 31,200  Level FlightAware ADS-B (CYVR)
05:07PM 47.9992 -125.1670 202° Southwest 461 531 31,200  Level FlightAware ADS-B
05:07PM 47.9931 -125.1698 195° South 464 534 31,200  Level FlightAware ADS-B (CYVR)
05:07PM 47.9805 -125.1740 190° South 466 536 31,200  Level FlightAware ADS-B
05:07PM 47.9688 -125.1749 182° South 470 541 31,200  Level FlightAware ADS-B (CYVR)
05:07PM 47.9614 -125.1750 178° South 471 542 31,200  Level FlightAware ADS-B
05:07PM 47.9531 -125.1730 173° South 475 547 31,200  Level FlightAware ADS-B
05:08PM 47.9505 -125.1725 168° South 477 549 31,200  Level FlightAware ADS-B (CYVR)
05:08PM 47.9352 -125.1660 162° South 480 552 31,200  Level FlightAware ADS-B
05:08PM 47.9420 -125.1696 157° South 482 555 31,200  Level FlightAware ADS-B (CYVR)
05:08PM 47.9205 -125.1570 154° Southeast 484 557 31,200  Level FlightAware ADS-B
05:08PM 47.9014 -125.1410 147° Southeast 488 562 31,200  Level FlightAware ADS-B
05:08PM 47.8950 -125.1341 144° Southeast 490 564 31,200  Level FlightAware ADS-B (CYVR)
05:08PM 47.8459 -125.0780 141° Southeast 491 565 31,200  Level FlightAware ADS-B
05:09PM 47.8494 -125.0819 141° Southeast 491 565 31,200 -780 Level FlightAware ADS-B (CYVR)
05:09PM 47.7917 -125.0140 141° Southeast 502 578 30,800 -1,440 Descending FlightAware ADS-B
05:09PM 47.7830 -125.0031 141° Southeast 507 583 30,500 -240 Descending FlightAware ADS-B (CYVR)
05:09PM 47.7367 -124.9480 141° Southeast 500 575 30,700 960 Climbing FlightAware ADS-B
05:10PM 47.7274 -124.9373 141° Southeast 493 567 31,000 960 Climbing FlightAware ADS-B (CYVR)
05:10PM 47.6832 -124.8850 141° Southeast 492 566 31,200 360 Climbing FlightAware ADS-B
05:10PM 47.6751 -124.8748 141° Southeast 492 566 31,200  Level FlightAware ADS-B (CYVR)
05:10PM 47.6296 -124.8210 142° Southeast 492 566 31,200 -240 Level FlightAware ADS-B
05:11PM 47.6203 -124.8101 142° Southeast 494 568 31,100 -2,400 Descending FlightAware ADS-B (CYVR)
05:11PM 47.5740 -124.7560 142° Southeast 517 595 30,000 -2,400 Descending FlightAware ADS-B
05:11PM 47.5766 -124.7592 141° Southeast 518 596 29,900 3,180 Descending FlightAware ADS-B (CYVR)
05:11PM 47.5197 -124.6910 141° Southeast 477 549 31,600 1,500 Climbing FlightAware ADS-B
05:12PM 47.4970 -124.6638 140° Southeast 487 560 30,900 -1,620 Descending FlightAware ADS-B (CYVR)
05:12PM 47.4817 -124.6450 140° Southeast 475 547 31,000 1,020 Climbing FlightAware ADS-B
05:12PM 47.4540 -124.6160 149° Southeast 445 512 31,300 780 Climbing FlightAware ADS-B
05:12PM 47.4418 -124.6059 150° Southeast 437 503 31,300  Level FlightAware ADS-B (CYVR)
05:13PM 47.3965 -124.5670 150° Southeast 438 504 31,300  Level FlightAware ADS-B
05:13PM 47.3838 -124.5563 152° Southeast 449 517 31,300 -240 Level FlightAware ADS-B (CYVR)
05:13PM 47.3396 -124.5230 153° Southeast 463 533 31,200 -240 Descending FlightAware ADS-B
05:13PM 47.3342 -124.5195 153° Southeast 473 544 31,200  Level FlightAware ADS-B (CYVR)
05:14PM 47.2915 -124.4880 155° Southeast 475 547 31,200  Level FlightAware ADS-B
05:14PM 47.2739 -124.4790 163° South 470 541 31,200  Level FlightAware ADS-B (CYVR)
05:14PM 47.2656 -124.4760 166° South 469 540 31,200  Level FlightAware ADS-B
05:14PM 47.2011 -124.4610 173° South 469 540 31,200  Level FlightAware ADS-B
05:15PM 47.1365 -124.4490 173° South 469 540 31,200  Level FlightAware ADS-B
05:15PM 47.1387 -124.4494 173° South 469 540 31,200  Level FlightAware ADS-B (CYVR)
05:15PM 47.0716 -124.4370 172° South 469 540 31,200  Level FlightAware ADS-B
05:16PM 47.0356 -124.4295 172° South 468 539 31,200  Level FlightAware ADS-B
05:16PM 47.0060 -124.4240 172° South 469 540 31,200  Level FlightAware ADS-B
05:16PM 46.9625 -124.4152 172° South 469 540 31,200  Level FlightAware ADS-B
05:16PM 46.9389 -124.4110 172° South 469 540 31,200 -1,140 Level FlightAware ADS-B
05:17PM 46.8741 -124.3980 172° South 480 552 30,600 -1,740 Descending FlightAware ADS-B
05:17PM 46.8563 -124.3946 173° South 489 563 30,100 -900 Descending FlightAware ADS-B
05:17PM 46.7967 -124.3840 173° South 484 557 30,100 720 Level FlightAware ADS-B
05:18PM 46.7722 -124.3790 173° South 473 544 30,600 1,740 Climbing FlightAware ADS-B
05:18PM 46.7309 -124.3710 173° South 477 549 31,000 900 Climbing FlightAware ADS-B
05:18PM 46.7103 -124.3672 173° South 468 539 31,200 360 Climbing FlightAware ADS-B
05:18PM 46.6640 -124.3580 172° South 467 537 31,200 -1,200 Level FlightAware ADS-B
05:19PM 46.5959 -124.3450 173° South 482 555 30,400 -1,500 Descending FlightAware ADS-B
05:19PM 46.6070 -124.3474 173° South 480 552 30,400 -240 Level FlightAware ADS-B
05:19PM 46.5279 -124.3330 173° South 477 549 30,300 300 Descending FlightAware ADS-B
05:20PM 46.5249 -124.3324 173° South 463 533 30,600 -2,520 Climbing FlightAware ADS-B
05:20PM 46.4646 -124.3210 172° South 475 547 29,100 -2,220 Descending FlightAware ADS-B
05:20PM 46.4242 -124.3120 171° South 440 506 29,000  Descending FlightAware ADS-B
05:20PM 46.4016 -124.3070 171° South 432 497 29,100 300 Climbing FlightAware ADS-B
05:21PM 46.3461 -124.2945 171° South 446 513 29,200 300 Climbing FlightAware ADS-B
05:22PM 46.2660 -124.2771 172° South 463 533 29,500 960 Climbing FlightAware ADS-B
05:22PM 46.1958 -124.2620 172° South 472 543 30,500 1,500 Climbing FlightAware ADS-B
05:22PM 46.1479 -124.2520 172° South 471 542 30,900 1,020 Climbing FlightAware ADS-B
05:23PM 46.0961 -124.2408 172° South 474 545 31,200 360 Climbing FlightAware ADS-B
05:23PM 46.0540 -124.2320 172° South 473 544 31,200 -1,140 Level FlightAware ADS-B
05:24PM 46.0053 -124.2222 172° South 487 560 30,400 -1,800 Descending FlightAware ADS-B
05:24PM 45.9866 -124.2190 172° South 487 560 30,300 -360 Descending FlightAware ADS-B
05:24PM 45.9212 -124.2050 171° South 473 544 30,200 -540 Descending FlightAware ADS-B
05:24PM 45.9126 -124.2035 171° South 469 540 30,000 480 Descending FlightAware ADS-B
05:25PM 45.8520 -124.1900 171° South 441 507 30,500 900 Climbing FlightAware ADS-B
05:25PM 45.8314 -124.1851 171° South 446 513 30,600 1,080 Climbing FlightAware ADS-B
05:25PM 45.7850 -124.1740 171° South 450 518 31,100 900 Climbing FlightAware ADS-B
05:26PM 45.7538 -124.1671 171° South 461 531 31,200 180 Climbing FlightAware ADS-B
05:26PM 45.7229 -124.1600 172° South 465 535 31,200  Level FlightAware ADS-B
05:26PM 45.6636 -124.1540 177° South 463 533 31,200  Level FlightAware ADS-B
05:26PM 45.6534 -124.1530 177° South 463 533 31,200  Level FlightAware ADS-B
05:27PM 45.5853 -124.1490 177° South 464 534 31,200  Level FlightAware ADS-B
05:27PM 45.5836 -124.1485 177° South 464 534 31,200 360 Level FlightAware ADS-B
05:27PM 45.5197 -124.1440 177° South 466 536 31,400 660 Climbing FlightAware ADS-B
05:28PM 45.4944 -124.1424 177° South 465 535 31,700 1,680 Climbing FlightAware ADS-B
05:28PM 45.4514 -124.1390 177° South 459 528 32,300 1,500 Climbing FlightAware ADS-B
05:28PM 45.4102 -124.1354 176° South 463 533 32,700 720 Climbing FlightAware ADS-B
05:28PM 45.3870 -124.1330 176° South 465 535 32,700  Level FlightAware ADS-B
05:29PM 45.3223 -124.1270 176° South 461 531 32,700 -720 Level FlightAware ADS-B
05:29PM 45.2597 -124.1210 176° South 452 520 32,000 -1,500 Descending FlightAware ADS-B
05:30PM 45.2443 -124.1201 177° South 452 520 31,700 -3,420 Descending FlightAware ADS-B
05:30PM 45.1959 -124.1170 178° South 462 532 30,300 -3,300 Descending FlightAware ADS-B
05:30PM 45.1308 -124.1130 178° South 459 528 28,900 -1,620 Descending FlightAware ADS-B
05:31PM 45.0781 -124.1101 178° South 450 518 28,800  Descending FlightAware ADS-B
05:31PM 45.0661 -124.1090 177° South 451 519 28,900 1,500 Climbing FlightAware ADS-B
05:31PM 45.0027 -124.1050 177° South 450 518 29,700 1,620 Climbing FlightAware ADS-B
05:32PM 45.0036 -124.1054 177° South 453 521 29,900 1,800 Climbing FlightAware ADS-B
05:32PM 44.9386 -124.1010 177° South 456 525 30,600 1,560 Climbing FlightAware ADS-B
05:32PM 44.9112 -124.1000 180° South 456 525 30,900 1,380 Climbing FlightAware ADS-B
05:32PM 44.9049 -124.1002 183° South 455 524 31,000 1,800 Climbing FlightAware ADS-B
05:32PM 44.8907 -124.1020 188° South 451 519 31,200 1,800 Climbing FlightAware ADS-B
05:33PM 44.8632 -124.1160 204° Southwest 441 507 31,600 1,800 Climbing FlightAware ADS-B
05:33PM 44.8487 -124.1290 218° Southwest 435 501 31,900 1,740 Climbing FlightAware ADS-B
05:33PM 44.8369 -124.1460 229° Southwest 434 499 32,100 1,020 Climbing FlightAware ADS-B
05:33PM 44.8278 -124.1650 240° Southwest 435 501 32,200 960 Climbing FlightAware ADS-B
05:33PM 44.8211 -124.1890 252° West 439 505 32,400 1,560 Climbing FlightAware ADS-B
05:33PM 44.8187 -124.2080 262° West 442 509 32,600 1,620 Climbing FlightAware ADS-B
05:33PM 44.8183 -124.2220 269° West 445 512 32,700 1,200 Climbing FlightAware ADS-B
05:33PM 44.8208 -124.2500 281° West 452 520 32,900 1,200 Climbing FlightAware ADS-B
05:34PM 44.8238 -124.2640 287° West 455 524 33,000 600 Climbing FlightAware ADS-B
05:34PM 44.8278 -124.2770 294° West 460 529 33,000  Level FlightAware ADS-B
05:34PM 44.8331 -124.2900 300° West 463 533 33,000  Level FlightAware ADS-B
05:34PM 44.8380 -124.3000 305° West 467 537 33,000  Level FlightAware ADS-B
05:34PM 44.8516 -124.3200 316° Northwest 474 545 33,000  Level FlightAware ADS-B
05:34PM 44.8700 -124.3370 330° Northwest 486 559 33,000  Level FlightAware ADS-B
05:34PM 44.8761 -124.3417 335° Northwest 491 565 33,000  Level FlightAware ADS-B
05:34PM 44.8890 -124.3480 340° North 496 571 33,000  Level FlightAware ADS-B
05:34PM 44.9100 -124.3550 352° North 508 585 33,000  Level FlightAware ADS-B
05:34PM 44.9190 -124.3560 355° North 512 589 33,000  Level FlightAware ADS-B
05:35PM 44.9375 -124.3560 North 517 595 33,000  Level FlightAware ADS-B
05:35PM 45.0126 -124.3530 North 522 601 33,000  Level FlightAware ADS-B
05:35PM 45.0232 -124.3524 North 522 601 33,000  Level FlightAware ADS-B
05:36PM 45.0851 -124.3500 North 523 602 33,000  Level FlightAware ADS-B
05:36PM 45.1286 -124.3460 North 527 606 33,000 -180 Level FlightAware ADS-B
05:36PM 45.1685 -124.3310 18° North 533 613 32,900 -480 Descending FlightAware ADS-B
05:36PM 45.1892 -124.3200 22° Northeast 533 613 32,800 -660 Descending FlightAware ADS-B
05:37PM 45.2105 -124.3060 27° Northeast 533 613 32,700 -1,200 Descending FlightAware ADS-B
05:37PM 45.2753 -124.2550 29° Northeast 536 617 32,000 -1,020 Descending FlightAware ADS-B
05:37PM 45.2831 -124.2485 29° Northeast 536 617 32,000  Level FlightAware ADS-B
05:38PM 45.3409 -124.2030 29° Northeast 537 618 32,000  Level FlightAware ADS-B
05:38PM 45.3914 -124.1638 29° Northeast 538 619 32,000  Level FlightAware ADS-B
05:38PM 45.4066 -124.1520 29° Northeast 538 619 32,000  Level FlightAware ADS-B
05:39PM 45.4727 -124.1010 29° Northeast 535 616 32,000  Level FlightAware ADS-B
05:39PM 45.4727 -124.1006 29° Northeast 534 615 32,000  Level FlightAware ADS-B
05:39PM 45.5383 -124.0500 29° Northeast 537 618 32,000  Level FlightAware ADS-B
05:39PM 45.5366 -124.0510 29° Northeast 539 620 32,000  Level FlightAware ADS-B
05:40PM 45.6038 -123.9990 29° Northeast 538 619 32,000  Level FlightAware ADS-B
05:40PM 45.6535 -123.9601 29° Northeast 537 618 32,000  Level FlightAware ADS-B
05:40PM 45.6700 -123.9470 29° Northeast 536 617 32,000  Level FlightAware ADS-B
05:41PM 45.7352 -123.8960 29° Northeast 536 617 32,000  Level FlightAware ADS-B
05:41PM 45.7200 -123.9083 29° Northeast 536 617 32,000  Level FlightAware ADS-B
05:41PM 45.8271 -123.8244 29° Northeast 534 615 32,000  Level FlightAware ADS-B
05:41PM 45.8310 -123.8210 29° Northeast 535 616 32,000  Level FlightAware ADS-B
05:42PM 45.8961 -123.7700 29° Northeast 529 609 32,000  Level FlightAware ADS-B
05:42PM 45.9094 -123.7596 29° Northeast 527 606 32,000  Level FlightAware ADS-B
05:42PM 45.9606 -123.7190 29° Northeast 520 598 32,000  Level FlightAware ADS-B
05:43PM 45.9962 -123.6909 29° Northeast 517 595 32,000  Level FlightAware ADS-B
05:43PM 46.0237 -123.6690 29° Northeast 516 594 32,000  Level FlightAware ADS-B
05:43PM 46.0746 -123.6287 29° Northeast 515 593 32,000 -240 Level FlightAware ADS-B
05:43PM 46.0904 -123.6160 29° Northeast 515 593 31,900 -1,800 Descending FlightAware ADS-B
05:44PM 46.1408 -123.5762 29° Northeast 515 593 31,100 -1,980 Descending FlightAware ADS-B (CYVR)
05:44PM 46.1533 -123.5660 29° Northeast 515 593 30,900 -2,340 Descending FlightAware ADS-B
05:44PM 46.2160 -123.5160 29° Northeast 513 590 29,700 -2,520 Descending FlightAware ADS-B
05:44PM 46.2226 -123.5108 29° Northeast 513 590 29,500 -2,220 Descending FlightAware ADS-B (CYVR)
05:45PM 46.2381 -123.4980 31° Northeast 511 588 29,300 -2,160 Descending FlightAware ADS-B
05:45PM 46.2533 -123.4830 37° Northeast 508 585 29,000 -2,340 Descending FlightAware ADS-B
05:45PM 46.2631 -123.4713 40° Northeast 507 583 28,800 -2,340 Descending FlightAware ADS-B (CYVR)
05:45PM 46.2762 -123.4540 43° Northeast 504 580 28,500 -2,280 Descending FlightAware ADS-B
05:45PM 46.3257 -123.3840 45° Northeast 496 571 27,400 -2,100 Descending FlightAware ADS-B
05:45PM 46.3263 -123.3832 45° Northeast 494 568 27,400 -2,100 Level FlightAware ADS-B (CYVR)
05:46PM 46.3814 -123.3040 45° Northeast 487 560 26,200 -2,100 Descending FlightAware ADS-B
05:46PM 46.3554 -123.3416 45° Northeast 484 557 26,000 -2,040 Descending FlightAware ADS-B (CYVR)
05:46PM 46.4293 -123.2360 45° Northeast 474 545 25,200 -2,040 Descending FlightAware ADS-B
05:47PM 46.4753 -123.1690 45° Northeast 460 529 24,200 -1,920 Descending FlightAware ADS-B
05:47PM 46.5058 -123.1250 44° Northeast 456 525 23,600 -1,860 Descending FlightAware ADS-B
05:47PM 46.5142 -123.1140 40° Northeast 457 526 23,400 -2,400 Descending FlightAware ADS-B
05:47PM 46.5226 -123.1050 36° Northeast 457 526 23,200 -2,340 Descending FlightAware ADS-B
05:48PM 46.5358 -123.0920 31° Northeast 457 526 22,900 -1,500 Descending FlightAware ADS-B
05:48PM 46.5584 -123.0760 24° Northeast 456 525 22,700 -1,200 Descending FlightAware ADS-B
05:48PM 46.5757 -123.0670 19° North 453 521 22,500 -1,140 Descending FlightAware ADS-B
05:48PM 46.5893 -123.0607 28° Northeast 456 525 22,400 -1,440 Descending FlightAware ADS-B
05:48PM 46.6363 -123.0430 15° North 447 514 21,800 -2,040 Descending FlightAware ADS-B
05:49PM 46.6958 -123.0180 16° North 439 505 20,600 -2,340 Descending FlightAware ADS-B
05:49PM 46.7140 -123.0100 18° North 437 503 20,300 -2,160 Descending FlightAware ADS-B
05:49PM 46.7220 -123.0060 22° Northeast 437 503 20,100 -2,040 Descending FlightAware ADS-B
05:49PM 46.7297 -123.0010 26° Northeast 437 503 20,000 -2,280 Descending FlightAware ADS-B
05:49PM 46.7367 -122.9950 31° Northeast 437 503 19,800 -2,280 Descending FlightAware ADS-B
05:49PM 46.7432 -122.9880 37° Northeast 437 503 19,700 -1,920 Descending FlightAware ADS-B
05:50PM 46.7608 -122.9650 45° Northeast 434 499 19,300 -1,800 Descending FlightAware ADS-B
05:50PM 46.7855 -122.9271 47° Northeast 430 495 18,800 -1,620 Descending FlightAware ADS-B (CYVR)
05:50PM 46.8025 -122.9010 47° Northeast 424 488 18,500 -1,680 Descending FlightAware ADS-B
05:51PM 46.8433 -122.8380 47° Northeast 419 482 17,600 -1,380 Descending FlightAware ADS-B
05:51PM 46.8675 -122.8010 44° Northeast 402 463 17,400 -780 Descending FlightAware ADS-B
05:51PM 46.8866 -122.7770 38° Northeast 388 447 17,200 -840 Descending FlightAware ADS-B
05:51PM 46.9084 -122.7560 32° Northeast 363 418 17,000 -960 Descending FlightAware ADS-B
05:52PM 46.9227 -122.7440 28° Northeast 349 402 16,800 -1,380 Descending FlightAware ADS-B
05:52PM 46.9343 -122.7360 25° Northeast 340 391 16,600 -1,440 Descending FlightAware ADS-B
05:52PM 46.9755 -122.7080 25° Northeast 312 359 15,900 -1,500 Descending FlightAware ADS-B
05:53PM 47.0119 -122.6820 25° Northeast 294 338 15,100 -2,040 Descending FlightAware ADS-B
05:53PM 47.0450 -122.6600 25° Northeast 289 333 14,000 -2,400 Descending FlightAware ADS-B
05:54PM 47.0714 -122.6414 26° Northeast 284 327 13,100 -2,160 Descending FlightAware ADS-B (CYVR)
05:54PM 47.0811 -122.6350 25° Northeast 283 326 12,900 -2,340 Descending FlightAware ADS-B
05:54PM 47.1168 -122.6100 25° Northeast 289 333 11,700 -2,460 Descending FlightAware ADS-B
05:55PM 47.1556 -122.5830 25° Northeast 311 358 10,400 -1,860 Descending FlightAware ADS-B
05:55PM 47.1841 -122.5630 26° Northeast 310 357 10,100 -840 Descending FlightAware ADS-B
05:55PM 47.2035 -122.5500 25° Northeast 307 353 9,900 -1,200 Descending FlightAware ADS-B
05:56PM 47.2242 -122.5350 25° Northeast 306 352 9,500 -1,500 Descending FlightAware ADS-B
05:56PM 47.2444 -122.5210 25° Northeast 306 352 9,100 -1,740 Descending FlightAware ADS-B
05:56PM 47.2651 -122.5070 25° Northeast 305 351 8,600 -1,560 Descending FlightAware ADS-B
05:56PM 47.2849 -122.4930 25° Northeast 304 350 8,300 -1,020 Descending FlightAware ADS-B
05:57PM 47.3051 -122.4790 25° Northeast 304 350 8,100 -600 Descending FlightAware ADS-B
05:57PM 47.3097 -122.4760 23° Northeast 304 350 8,100  Level FlightAware ADS-B
05:57PM 47.3150 -122.4730 17° North 302 348 8,100  Level FlightAware ADS-B
05:57PM 47.3220 -122.4710 North 298 343 8,100  Level FlightAware ADS-B
05:57PM 47.3269 -122.4710 North 294 338 8,100  Level FlightAware ADS-B
05:57PM 47.3477 -122.4690 North 293 337 8,100 -240 Level FlightAware ADS-B
05:57PM 47.3686 -122.4680 North 292 336 8,000 -600 Descending FlightAware ADS-B
05:58PM 47.3887 -122.4670 North 287 330 7,800 -720 Descending FlightAware ADS-B
05:58PM 47.4024 -122.4670 North 282 325 7,700 -660 Descending FlightAware ADS-B
05:58PM 47.4246 -122.4660 North 274 315 7,500 -780 Descending FlightAware ADS-B
05:58PM 47.4435 -122.4650 North 265 305 7,300 -840 Descending FlightAware ADS-B
05:59PM 47.4597 -122.4640 North 261 300 7,100 -1,020 Descending FlightAware ADS-B
05:59PM 47.4789 -122.4630 North 259 298 6,800 -1,200 Descending FlightAware ADS-B
05:59PM 47.4849 -122.4630 North 259 298 6,700 -1,500 Descending FlightAware ADS-B
05:59PM 47.4887 -122.4630 358° North 258 297 6,600 -1,740 Descending FlightAware ADS-B
05:59PM 47.4930 -122.4630 354° North 257 296 6,500 -1,380 Descending FlightAware ADS-B
05:59PM 47.4991 -122.4650 350° North 256 295 6,400 -1,680 Descending FlightAware ADS-B
05:59PM 47.5058 -122.4670 347° North 255 293 6,200 -2,340 Descending FlightAware ADS-B
05:59PM 47.5231 -122.4730 344° North 248 285 5,600 -2,640 Descending FlightAware ADS-B
06:00PM 47.5397 -122.4810 343° North 252 290 4,900 -2,520 Descending FlightAware ADS-B
06:00PM 47.5575 -122.4890 343° North 255 293 4,300 -1,800 Descending FlightAware ADS-B
06:00PM 47.5670 -122.4930 341° North 244 281 4,200 -480 Descending FlightAware ADS-B
06:00PM 47.5715 -122.4960 339° North 237 273 4,200 -960 Level FlightAware ADS-B
06:00PM 47.5793 -122.5010 335° Northwest 225 259 4,000 -1,500 Descending FlightAware ADS-B
06:00PM 47.5865 -122.5060 334° Northwest 220 253 3,800 -2,100 Descending FlightAware ADS-B
06:01PM 47.6007 -122.5170 333° Northwest 217 250 3,200 -2,400 Descending FlightAware ADS-B
06:01PM 47.6143 -122.5270 333° Northwest 218 251 2,600 -480 Descending FlightAware ADS-B
06:02PM 47.6822 -122.5280 52° Northeast 208 239 2,400 -240 Descending FlightAware ADS-B
06:03PM 47.6889 -122.5140 54° Northeast 205 236 2,300 -240 Descending FlightAware ADS-B
06:03PM 47.6987 -122.4950 53° Northeast 207 238 2,300  Level FlightAware ADS-B
06:05PM 47.6639 -122.4160 151° Southeast 147 169 2,300  Level FlightAware ADS-B
06:05PM 47.6547 -122.4080 150° Southeast 148 170 2,300  Level FlightAware ADS-B
06:05PM 47.6472 -122.4020 149° Southeast 148 170 2,300  Level FlightAware ADS-B
06:05PM 47.6392 -122.3950 150° Southeast 147 169 2,300  Level FlightAware ADS-B
06:05PM 47.6331 -122.3900 150° Southeast 151 174 2,300 -420 Level FlightAware ADS-B
06:06PM 47.6222 -122.3800 150° Southeast 141 162 2,100 -720 Descending FlightAware ADS-B
06:06PM 47.6081 -122.3680 150° Southeast 140 161 1,800 -780 Descending FlightAware ADS-B
06:07PM 47.5877 -122.3510 150° Southeast 134 154 1,300 -900 Descending FlightAware ADS-B
06:07PM 47.5717 -122.3386 150° Southeast 140 161 800 -900 Descending Seattle Center
06:08PM 47.5664 -122.3364 164° South 135 155 700 -720 Descending Seattle Center
06:08PM 47.5425 -122.3136 147° Southeast 140 161 100 -540 Descending Seattle Center
06:09PM 47.5247 -122.3036 159° South 176 203 100  Level Seattle Center